Time;durP1;ratioP1;P1;durP2;ratioP2;P2;SDS_P1;SDS_P2;PMS_P1;PMS_P2;Temp;Humidity;BMP_temperature;BMP_pressure;BME280_temperature;BME280_humidity;BME280_pressure;Samples;Min_cycle;Max_cycle;Signal;HPM_P1;HPM_P2
2021/01/12 00:02:17;;;;;;;22.80;11.00;;;;;;;-2.77;79.53;99268.91;5108633;28;20487;-80
2021/01/12 00:04:44;;;;;;;27.60;11.20;;;;;;;-2.78;78.87;99263.69;5113899;27;20050;-80
2021/01/12 00:07:11;;;;;;;28.63;11.63;;;;;;;-2.89;79.19;99241.28;5104772;28;20412;-80
2021/01/12 00:09:39;;;;;;;23.27;10.97;;;;;;;-2.83;79.77;99231.19;5106481;28;20044;-80
2021/01/12 00:12:06;;;;;;;20.60;10.20;;;;;;;-2.92;78.84;99227.31;5115068;28;20047;-80
2021/01/12 00:14:32;;;;;;;21.93;10.37;;;;;;;-2.97;79.17;99218.78;5114576;28;20044;-80
2021/01/12 00:17:00;;;;;;;25.73;11.13;;;;;;;-2.91;79.24;99203.25;5114945;28;20541;-80
2021/01/12 00:19:28;;;;;;;23.93;11.03;;;;;;;-2.69;78.99;99239.16;5114552;28;20656;-80
2021/01/12 00:22:01;;;;;;;19.23;9.63;;;;;;;-2.71;78.84;99225.94;5114634;28;20445;-80
2021/01/12 00:24:27;;;;;;;24.40;8.67;;;;;;;-2.91;78.73;99205.06;5112290;28;20044;-80
2021/01/12 00:26:53;;;;;;;17.60;8.97;;;;;;;-2.79;78.33;99206.94;5112939;28;20066;-80
2021/01/12 00:29:20;;;;;;;20.47;9.33;;;;;;;-2.74;78.61;99206.63;5103726;27;20092;-80
2021/01/12 00:31:47;;;;;;;18.87;9.20;;;;;;;-2.65;78.19;99207.84;5109742;28;20060;-80
2021/01/12 00:34:14;;;;;;;22.13;9.77;;;;;;;-2.78;78.18;99192.69;5109547;27;20071;-81
2021/01/12 00:36:43;;;;;;;19.40;9.60;;;;;;;-2.69;78.06;99202.72;5113701;28;20040;-81
2021/01/12 00:39:10;;;;;;;20.90;10.00;;;;;;;-2.70;78.14;99187.72;5108222;28;20047;-80
2021/01/12 00:41:36;;;;;;;18.47;8.87;;;;;;;-2.62;78.01;99205.00;5110753;28;20522;-80
2021/01/12 00:44:04;;;;;;;19.70;9.50;;;;;;;-2.65;78.59;99200.72;5105899;28;20109;-80
2021/01/12 00:46:30;;;;;;;17.60;8.57;;;;;;;-2.64;78.32;99205.09;5105490;28;20043;-80
2021/01/12 00:48:56;;;;;;;21.80;10.20;;;;;;;-2.68;78.29;99180.50;5115801;27;20048;-80
2021/01/12 00:51:33;;;;;;;23.00;9.70;;;;;;;-2.66;77.81;99185.72;5116237;27;20047;-80
2021/01/12 00:54:00;;;;;;;21.53;10.23;;;;;;;-2.64;78.22;99177.63;5116067;27;20484;-80
2021/01/12 00:56:26;;;;;;;20.23;10.13;;;;;;;-2.64;77.43;99173.16;5099928;28;20059;-80
2021/01/12 00:58:53;;;;;;;20.00;9.83;;;;;;;-2.69;77.64;99159.31;5113992;28;20054;-80
2021/01/12 01:01:19;;;;;;;24.67;10.40;;;;;;;-2.64;78.04;99169.66;5113510;28;20116;-80
2021/01/12 01:03:45;;;;;;;22.53;10.30;;;;;;;-2.44;77.81;99189.63;5109019;28;20044;-81
2021/01/12 01:06:12;;;;;;;24.50;10.37;;;;;;;-2.45;77.42;99185.22;5101288;28;20051;-80
2021/01/12 01:08:43;;;;;;;18.73;9.17;;;;;;;-2.55;76.55;99180.53;5089896;28;20108;-80
2021/01/12 01:11:10;;;;;;;16.77;8.53;;;;;;;-2.43;77.75;99196.66;5105613;28;20070;-80
2021/01/12 01:13:36;;;;;;;18.80;8.97;;;;;;;-2.45;77.49;99204.75;5114132;28;20052;-80
2021/01/12 01:16:03;;;;;;;22.20;10.30;;;;;;;-2.54;77.60;99166.28;5113425;28;20044;-80
2021/01/12 01:18:29;;;;;;;15.23;7.83;;;;;;;-2.50;77.58;99186.41;5109138;28;20059;-81
2021/01/12 01:20:56;;;;;;;16.47;7.37;;;;;;;-2.56;77.26;99160.22;5113594;28;20495;-80
2021/01/12 01:23:22;;;;;;;15.53;8.63;;;;;;;-2.56;77.58;99160.22;5117135;28;20093;-81
2021/01/12 01:25:50;;;;;;;17.43;8.53;;;;;;;-2.41;77.47;99182.28;5113568;28;20204;-80
2021/01/12 01:28:17;;;;;;;21.17;8.80;;;;;;;-2.50;76.32;99173.09;5098883;28;20052;-80
2021/01/12 01:30:44;;;;;;;21.93;9.13;;;;;;;-2.34;77.27;99175.59;5113370;28;20039;-80
2021/01/12 01:33:10;;;;;;;21.23;9.87;;;;;;;-2.46;76.81;99160.44;5100511;28;20099;-80
2021/01/12 01:35:36;;;;;;;22.13;9.93;;;;;;;-2.33;77.12;99181.78;5116880;27;20047;-80
2021/01/12 01:38:02;;;;;;;21.20;9.90;;;;;;;-2.31;77.05;99202.00;5096322;28;20086;-80
2021/01/12 01:40:30;;;;;;;19.93;9.73;;;;;;;-2.28;76.06;99206.28;5110866;28;20519;-80
2021/01/12 01:42:56;;;;;;;20.27;9.23;;;;;;;-2.23;77.04;99200.66;5107131;28;20598;-80
2021/01/12 01:45:24;;;;;;;18.63;8.93;;;;;;;-2.38;76.47;99170.56;5098002;28;20049;-80
2021/01/12 01:47:52;;;;;;;21.87;9.47;;;;;;;-2.34;76.03;99177.41;5132296;28;20480;-80
2021/01/12 01:50:30;;;;;;;20.37;9.57;;;;;;;-2.44;76.44;99163.84;5133317;28;20084;-80
2021/01/12 01:52:57;;;;;;;19.37;10.00;;;;;;;-2.34;76.05;99167.59;5119265;28;20051;-80
2021/01/12 01:55:24;;;;;;;20.07;9.60;;;;;;;-2.34;76.00;99150.78;5103341;28;20052;-80
2021/01/12 01:57:51;;;;;;;18.37;9.47;;;;;;;-2.16;75.90;99162.84;5090134;28;20644;-80
2021/01/12 02:00:19;;;;;;;20.40;9.13;;;;;;;-2.30;76.81;99149.63;5111885;28;20055;-80
2021/01/12 02:02:54;;;;;;;22.50;11.27;;;;;;;-2.13;76.33;99156.44;5112706;28;20051;-80
2021/01/12 02:05:27;;;;;;;15.40;8.37;;;;;;;-2.19;76.04;99143.56;5111134;28;20044;-80
2021/01/12 02:07:55;;;;;;;19.00;9.63;;;;;;;-2.24;76.37;99119.03;5110952;28;20079;-80
2021/01/12 02:10:24;;;;;;;23.03;10.07;;;;;;;-2.07;75.42;99149.88;5113250;28;20039;-80
2021/01/12 02:12:57;;;;;;;19.47;9.67;;;;;;;-2.08;76.20;99143.66;5114107;28;20453;-80
2021/01/12 02:15:25;;;;;;;17.63;8.97;;;;;;;-2.23;76.74;99108.31;5113583;28;20082;-81
2021/01/12 02:17:53;;;;;;;17.33;9.07;;;;;;;-2.10;75.50;99113.63;5116021;27;20040;-80
2021/01/12 02:20:22;;;;;;;16.53;8.73;;;;;;;-2.06;75.30;99108.91;5117056;28;20097;-80
2021/01/12 02:23:03;;;;;;;17.20;8.10;;;;;;;-2.00;76.17;99112.03;5111933;28;20048;-80
2021/01/12 02:25:32;;;;;;;18.00;8.27;;;;;;;-2.10;75.92;99083.47;5083232;28;20060;-80
2021/01/12 02:28:05;;;;;;;18.90;7.90;;;;;;;-2.11;76.75;99068.44;5097233;28;20052;-81
2021/01/12 02:30:32;;;;;;;20.77;9.37;;;;;;;-1.98;76.79;99090.59;5116273;28;20083;-80
2021/01/12 02:32:58;;;;;;;16.90;8.80;;;;;;;-2.10;77.21;99072.81;5116479;28;20415;-81
2021/01/12 02:35:27;;;;;;;18.20;8.53;;;;;;;-1.97;76.90;99090.50;5115246;28;20055;-81
2021/01/12 02:37:56;;;;;;;16.52;9.40;;;;;;;-2.14;76.79;99066.84;5116272;28;20061;-81
2021/01/12 02:40:22;;;;;;;17.93;8.50;;;;;;;-1.93;76.84;99077.81;5116632;28;20048;-81
2021/01/12 02:42:50;;;;;;;22.07;7.77;;;;;;;-1.97;76.52;99071.00;5113685;28;20500;-81
2021/01/12 02:45:17;;;;;;;14.07;7.83;;;;;;;-1.91;76.15;99059.03;5115903;28;20043;-81
2021/01/12 02:47:43;;;;;;;15.93;9.17;;;;;;;-1.92;76.86;99041.38;5116691;28;20124;-81
2021/01/12 02:50:12;;;;;;;17.23;7.77;;;;;;;-1.89;76.83;99035.81;5116347;28;20077;-81
2021/01/12 02:52:39;;;;;;;14.23;8.07;;;;;;;-1.77;76.79;99063.41;5116575;28;20047;-81
2021/01/12 02:55:07;;;;;;;15.63;7.63;;;;;;;-1.86;76.75;99039.13;5116259;28;20048;-81
2021/01/12 02:57:34;;;;;;;14.00;7.23;;;;;;;-1.84;76.49;99033.66;5116638;28;20082;-81
2021/01/12 03:00:01;;;;;;;14.23;6.67;;;;;;;-1.70;76.42;99048.66;5116674;28;20047;-81
2021/01/12 03:02:27;;;;;;;16.47;7.70;;;;;;;-1.86;77.06;99004.47;5116332;28;20554;-82
2021/01/12 03:04:54;;;;;;;13.87;7.47;;;;;;;-1.73;77.49;99016.91;5095533;28;20040;-81
2021/01/12 03:07:20;;;;;;;12.63;6.50;;;;;;;-1.63;76.62;99028.63;5109033;28;20420;-81
2021/01/12 03:09:46;;;;;;;13.03;6.90;;;;;;;-1.71;77.51;99018.50;5116408;28;20055;-82
2021/01/12 03:12:16;;;;;;;15.00;6.73;;;;;;;-1.69;77.31;99011.25;5127339;27;20047;-81
2021/01/12 03:14:42;;;;;;;16.00;7.15;;;;;;;-1.67;76.62;98987.13;5136019;27;20506;-81
2021/01/12 03:17:10;;;;;;;14.30;5.73;;;;;;;-1.52;76.99;99026.03;5137040;27;20047;-81
2021/01/12 03:19:37;;;;;;;11.53;6.43;;;;;;;-1.62;77.69;98987.69;5136588;27;20051;-81
2021/01/12 03:22:03;;;;;;;12.13;6.50;;;;;;;-1.62;77.56;98972.53;5133544;27;20047;-81
2021/01/12 03:24:30;;;;;;;10.23;5.30;;;;;;;-1.59;77.22;98970.63;5115239;28;20079;-81
2021/01/12 03:26:56;;;;;;;11.73;6.13;;;;;;;-1.49;77.03;98977.81;5115921;28;20047;-82
2021/01/12 03:29:22;;;;;;;10.10;5.80;;;;;;;-1.61;77.42;98958.25;5115789;28;20506;-81
2021/01/12 03:31:48;;;;;;;14.97;6.43;;;;;;;-1.46;77.10;98972.25;5115114;28;20043;-81
2021/01/12 03:34:16;;;;;;;13.43;6.63;;;;;;;-1.54;77.20;98955.97;5115506;28;20073;-81
2021/01/12 03:36:42;;;;;;;14.03;5.67;;;;;;;-1.48;76.83;98960.84;5115831;28;20051;-81
2021/01/12 03:39:09;;;;;;;13.17;5.77;;;;;;;-1.34;76.77;98958.97;5115790;28;20224;-81
2021/01/12 03:41:35;;;;;;;11.13;6.10;;;;;;;-1.49;77.24;98939.63;5115761;28;20062;-81
2021/01/12 03:44:02;;;;;;;10.77;5.67;;;;;;;-1.41;76.93;98947.06;5115657;28;20052;-81
2021/01/12 03:46:29;;;;;;;13.00;6.10;;;;;;;-1.34;77.53;98948.28;5115032;28;20055;-81
2021/01/12 03:48:55;;;;;;;12.43;5.23;;;;;;;-1.33;76.54;98956.19;5115154;28;20043;-82
2021/01/12 03:51:25;;;;;;;9.97;5.50;;;;;;;-1.18;76.37;98964.84;5115502;28;20057;-81
2021/01/12 03:53:51;;;;;;;11.95;5.43;;;;;;;-1.38;76.86;98928.19;5115132;28;20043;-81
2021/01/12 03:56:18;;;;;;;11.40;5.83;;;;;;;-1.22;76.54;98935.84;5114994;28;20043;-81
2021/01/12 03:58:45;;;;;;;10.80;5.87;;;;;;;-1.16;75.88;98943.41;5115499;28;20059;-81
2021/01/12 04:01:12;;;;;;;9.60;5.43;;;;;;;-1.32;75.63;98906.38;5115250;28;20047;-81
2021/01/12 04:03:39;;;;;;;12.73;5.43;;;;;;;-1.27;75.74;98915.72;5115469;28;20051;-81
2021/01/12 04:06:11;;;;;;;8.60;4.70;;;;;;;-1.14;75.37;98920.13;5114777;28;20044;-81
2021/01/12 04:08:39;;;;;;;9.60;5.27;;;;;;;-1.15;75.31;98913.09;5114933;28;20134;-81
2021/01/12 04:11:06;;;;;;;9.63;5.20;;;;;;;-1.22;75.68;98909.19;5114139;28;20054;-81
2021/01/12 04:13:33;;;;;;;9.70;4.90;;;;;;;-1.12;75.15;98913.69;5115505;28;20407;-81
2021/01/12 04:16:01;;;;;;;11.90;5.60;;;;;;;-1.20;75.11;98893.94;5113839;28;20067;-81
2021/01/12 04:18:27;;;;;;;10.73;5.43;;;;;;;-1.13;74.71;98905.81;5114635;28;20051;-81
2021/01/12 04:20:53;;;;;;;8.87;5.07;;;;;;;-1.13;74.89;98901.34;5115044;28;20449;-81
2021/01/12 04:23:20;;;;;;;7.13;3.77;;;;;;;-1.15;75.32;98894.41;5114612;28;20052;-81
2021/01/12 04:25:47;;;;;;;9.37;5.30;;;;;;;-1.09;75.61;98888.59;5114263;28;20055;-81
2021/01/12 04:28:13;;;;;;;7.30;4.50;;;;;;;-1.14;75.54;98885.47;5094585;28;20058;-81
2021/01/12 04:30:40;;;;;;;8.33;4.97;;;;;;;-1.11;75.70;98898.56;5111150;28;20051;-81
2021/01/12 04:33:06;;;;;;;9.97;4.97;;;;;;;-1.23;75.94;98879.00;5114900;28;20044;-81
2021/01/12 04:35:32;;;;;;;8.13;4.80;;;;;;;-1.13;76.21;98890.69;5113851;28;20442;-81
2021/01/12 04:37:59;;;;;;;9.50;5.13;;;;;;;-1.16;76.99;98885.56;5114127;28;20043;-81
2021/01/12 04:40:26;;;;;;;10.60;5.40;;;;;;;-1.00;77.09;98900.41;5114721;28;20097;-81
2021/01/12 04:42:53;;;;;;;9.50;4.67;;;;;;;-1.26;77.40;98857.91;5114055;28;20491;-81
2021/01/12 04:45:20;;;;;;;10.93;5.47;;;;;;;-1.01;77.86;98888.88;5094589;28;20052;-82
2021/01/12 04:47:46;;;;;;;9.30;4.57;;;;;;;-1.01;77.34;98888.88;5114624;28;20105;-81
2021/01/12 04:50:12;;;;;;;10.10;5.40;;;;;;;-0.96;78.14;98872.53;5114039;28;20050;-81
2021/01/12 04:52:46;;;;;;;7.80;4.77;;;;;;;-1.07;78.10;98873.31;5114570;28;20055;-82
2021/01/12 04:55:14;;;;;;;12.37;4.93;;;;;;;-0.92;77.75;98869.50;5114399;28;20044;-81
2021/01/12 04:57:40;;;;;;;8.37;4.70;;;;;;;-0.90;77.69;98864.03;5114131;28;20055;-82
2021/01/12 05:00:17;;;;;;;9.23;4.97;;;;;;;-1.02;78.42;98854.28;5113807;28;20492;-81
2021/01/12 05:02:55;;;;;;;8.67;4.93;;;;;;;-1.09;77.87;98846.75;5114249;28;20055;-82
2021/01/12 05:05:22;;;;;;;10.87;5.00;;;;;;;-0.96;78.32;98862.69;5113613;28;20043;-82
2021/01/12 05:07:48;;;;;;;9.07;4.83;;;;;;;-0.90;78.48;98864.88;5114237;28;20039;-82
2021/01/12 05:10:16;;;;;;;10.67;4.87;;;;;;;-0.94;78.48;98851.88;5113350;28;20067;-80
2021/01/12 05:12:45;;;;;;;8.40;4.77;;;;;;;-1.08;78.14;98821.78;5113094;28;20044;-81
2021/01/12 05:15:19;;;;;;;8.38;4.53;;;;;;;-0.94;78.85;98841.22;5113674;28;20487;-82
2021/01/12 05:17:49;;;;;;;9.90;4.53;;;;;;;-0.83;79.09;98851.03;5113455;28;20488;-80
2021/01/12 05:20:25;;;;;;;9.73;4.85;;;;;;;-0.84;79.44;98846.66;5114111;28;20047;-80
2021/01/12 05:23:07;;;;;;;9.80;5.20;;;;;;;-1.02;80.74;98828.47;5113288;28;20043;-81
2021/01/12 05:25:36;;;;;;;9.70;5.23;;;;;;;-0.97;80.95;98834.28;5113078;28;20070;-81
2021/01/12 05:28:03;;;;;;;11.88;4.60;;;;;;;-1.01;82.14;98827.53;5113941;28;20471;-80
2021/01/12 05:30:31;;;;;;;12.53;4.90;;;;;;;-1.14;82.41;98803.59;5113670;28;20097;-80
2021/01/12 05:32:59;;;;;;;11.57;5.00;;;;;;;-1.16;83.14;98802.88;5113942;28;20058;-81
2021/01/12 05:35:29;;;;;;;7.77;4.83;;;;;;;-1.17;83.03;98808.34;5113342;28;20092;-81
2021/01/12 05:38:02;;;;;;;8.47;4.57;;;;;;;-1.12;83.48;98806.13;5113855;28;20408;-81
2021/01/12 05:40:32;;;;;;;10.40;4.90;;;;;;;-0.98;83.19;98824.59;5114017;28;20075;-81
2021/01/12 05:43:08;;;;;;;9.15;5.13;;;;;;;-1.06;84.02;98811.00;5113079;28;20464;-80
2021/01/12 05:45:37;;;;;;;10.13;5.17;;;;;;;-0.93;83.37;98809.06;5108639;28;20467;-80
2021/01/12 05:48:05;;;;;;;10.67;5.10;;;;;;;-0.95;83.51;98789.66;5115369;28;20059;-81
2021/01/12 05:50:31;;;;;;;11.97;4.90;;;;;;;-0.94;84.04;98790.50;5117613;28;20047;-81
2021/01/12 05:53:03;;;;;;;8.93;4.77;;;;;;;-0.98;83.53;98757.03;5117505;28;20495;-81
2021/01/12 05:55:35;;;;;;;8.10;5.00;;;;;;;-0.91;83.68;98785.78;5117478;28;20380;-80
2021/01/12 05:58:10;;;;;;;12.00;5.23;;;;;;;-0.88;84.18;98781.19;5117812;28;20108;-80
2021/01/12 06:00:42;;;;;;;14.03;4.93;;;;;;;-1.01;83.92;98754.59;5117988;28;20109;-81
2021/01/12 06:03:13;;;;;;;11.07;5.57;;;;;;;-0.92;84.50;98773.41;5117043;28;20039;-81
2021/01/12 06:05:44;;;;;;;10.40;5.33;;;;;;;-0.97;84.82;98762.25;5116833;28;20051;-81
2021/01/12 06:08:13;;;;;;;10.03;4.70;;;;;;;-0.99;84.92;98747.34;5116932;28;20085;-81
2021/01/12 06:10:42;;;;;;;10.63;5.40;;;;;;;-0.89;85.53;98769.63;5113573;28;20052;-80
2021/01/12 06:13:14;;;;;;;10.07;5.40;;;;;;;-0.92;86.39;98781.44;5114319;27;20286;-81
2021/01/12 06:15:46;;;;;;;14.00;5.37;;;;;;;-1.12;86.95;98758.13;5113508;28;20054;-81
2021/01/12 06:18:13;;;;;;;11.37;5.63;;;;;;;-0.92;86.90;98780.56;5114094;28;20054;-81
2021/01/12 06:21:13;;;;;;;13.07;5.77;;;;;;;-0.87;87.31;98773.06;5114599;28;20536;-81
2021/01/12 06:23:45;;;;;;;11.48;6.10;;;;;;;-0.95;88.20;98773.66;5114479;28;20556;-81
2021/01/12 06:26:12;;;;;;;10.33;5.47;;;;;;;-1.01;88.56;98759.94;5114822;28;20047;-81
2021/01/12 06:28:41;;;;;;;10.57;5.83;;;;;;;-1.11;89.12;98739.31;5114847;28;20063;-81
2021/01/12 06:31:10;;;;;;;11.50;5.77;;;;;;;-1.03;88.63;98746.72;5116785;28;20059;-81
2021/01/12 06:33:36;;;;;;;9.33;4.30;;;;;;;-1.18;88.78;98727.44;5116906;28;20051;-81
2021/01/12 06:36:05;;;;;;;10.43;4.87;;;;;;;-1.04;89.43;98766.34;5097917;28;20092;-81
2021/01/12 06:38:36;;;;;;;15.03;6.67;;;;;;;-1.20;89.15;98732.06;5116767;28;20056;-81
2021/01/12 06:41:05;;;;;;;10.70;5.40;;;;;;;-1.26;89.77;98719.19;5116679;28;20083;-81
2021/01/12 06:43:32;;;;;;;9.65;5.13;;;;;;;-1.24;90.14;98714.59;5116827;28;20063;-81
2021/01/12 06:46:00;;;;;;;11.57;5.70;;;;;;;-1.13;89.98;98716.41;5115566;28;20055;-81
2021/01/12 06:48:28;;;;;;;12.97;6.13;;;;;;;-1.11;90.24;98709.97;5116699;28;20058;-81
2021/01/12 06:50:55;;;;;;;14.10;6.10;;;;;;;-1.11;90.20;98693.13;5116643;28;20055;-81
2021/01/12 06:53:23;;;;;;;13.43;6.60;;;;;;;-1.07;90.28;98715.91;5116195;28;20137;-81
2021/01/12 06:55:49;;;;;;;11.70;5.83;;;;;;;-0.97;90.67;98721.38;5115856;28;20059;-81
2021/01/12 06:58:16;;;;;;;13.47;6.07;;;;;;;-1.10;90.49;98686.81;5116613;28;20047;-81
2021/01/12 07:00:59;;;;;;;12.60;6.27;;;;;;;-1.09;90.51;98684.00;5115162;28;20048;-81
2021/01/12 07:03:30;;;;;;;11.93;6.03;;;;;;;-0.95;90.14;98693.59;5117021;28;20055;-82
2021/01/12 07:06:00;;;;;;;12.50;5.30;;;;;;;-0.93;90.36;98701.47;5115718;28;20126;-81
2021/01/12 07:08:27;;;;;;;;;;;;;;;-0.92;90.30;98695.16;5116027;28;20092;-82
2021/01/12 07:10:53;;;;;;;13.80;5.50;;;;;;;-0.97;90.57;98708.03;5116472;27;19920;-82
2021/01/12 07:13:19;;;;;;;13.80;6.60;;;;;;;-0.98;90.30;98690.31;5136950;27;20047;-82
2021/01/12 07:15:47;;;;;;;11.23;5.60;;;;;;;-1.09;90.20;98676.00;5136159;27;20050;-81
2021/01/12 07:18:14;;;;;;;11.17;5.27;;;;;;;-0.99;89.94;98683.31;5131377;27;20039;-82
2021/01/12 07:20:42;;;;;;;9.37;5.23;;;;;;;-0.94;90.41;98689.94;5115726;28;20055;-81
2021/01/12 07:23:10;;;;;;;11.37;6.00;;;;;;;-0.92;90.46;98688.03;5115448;28;20048;-81
2021/01/12 07:25:46;;;;;;;17.13;6.03;;;;;;;-1.02;90.05;98665.72;5116119;28;20092;-81
2021/01/12 07:28:17;;;;;;;12.93;5.77;;;;;;;-1.00;90.11;98670.94;5115872;28;20677;-81
2021/01/12 07:30:45;;;;;;;11.40;5.10;;;;;;;-1.01;90.30;98671.88;5115157;28;20558;-82
2021/01/12 07:33:19;;;;;;;13.27;5.57;;;;;;;-1.11;90.50;98655.78;5115970;28;20039;-82
2021/01/12 07:35:53;;;;;;;11.33;5.40;;;;;;;-0.94;90.35;98667.75;5115129;28;20048;-82
2021/01/12 07:38:22;;;;;;;11.70;5.10;;;;;;;-0.92;90.64;98673.81;5116406;28;20419;-82
2021/01/12 07:40:49;;;;;;;12.27;5.38;;;;;;;-1.07;90.17;98646.53;5113411;28;20503;-82
2021/01/12 07:43:17;;;;;;;9.23;5.30;;;;;;;-0.95;90.54;98660.72;5113062;27;20044;-82
2021/01/12 07:45:46;;;;;;;13.03;6.17;;;;;;;-0.99;90.89;98662.78;5111637;28;20046;-82
2021/01/12 07:48:13;;;;;;;11.60;5.60;;;;;;;-1.00;91.05;98649.56;5113179;28;20279;-82
2021/01/12 07:50:43;;;;;;;15.67;6.00;;;;;;;-0.92;91.62;98664.00;5113716;28;20490;-82
2021/01/12 07:53:10;;;;;;;10.80;5.30;;;;;;;-1.01;91.22;98640.75;5113391;28;20589;-82
2021/01/12 07:55:42;;;;;;;14.03;5.40;;;;;;;-0.92;91.51;98653.31;5113063;28;20120;-81
2021/01/12 07:58:10;;;;;;;17.83;6.03;;;;;;;-0.86;91.64;98648.44;5113202;28;20104;-82
2021/01/12 08:00:37;;;;;;;9.60;4.20;;;;;;;-0.95;91.25;98636.69;5113393;28;20050;-81
2021/01/12 08:03:04;;;;;;;12.03;6.07;;;;;;;-0.70;91.23;98654.22;5113336;28;20039;-82
2021/01/12 08:05:30;;;;;;;12.30;5.90;;;;;;;-0.73;91.40;98655.31;5112865;28;20050;-81
2021/01/12 08:08:01;;;;;;;10.77;5.13;;;;;;;-0.75;91.27;98651.94;5113242;28;20432;-81
2021/01/12 08:10:28;;;;;;;10.93;5.20;;;;;;;-0.67;91.18;98643.31;5113303;28;20063;-81
2021/01/12 08:13:03;;;;;;;13.60;5.13;;;;;;;-0.64;91.24;98639.53;5125752;27;20043;-81
2021/01/12 08:15:30;;;;;;;8.43;4.70;;;;;;;-0.61;90.67;98637.44;5112053;28;20047;-81
2021/01/12 08:17:57;;;;;;;9.33;5.27;;;;;;;-0.67;90.82;98621.09;5112497;28;20043;-81
2021/01/12 08:20:23;;;;;;;11.13;5.07;;;;;;;-0.50;90.62;98651.75;5112431;28;20457;-81
2021/01/12 08:22:50;;;;;;;12.40;5.30;;;;;;;-0.51;91.21;98642.91;5094386;28;20126;-82
2021/01/12 08:25:16;;;;;;;7.17;4.40;;;;;;;-0.56;90.52;98635.25;5111667;28;20040;-81
2021/01/12 08:27:48;;;;;;;9.93;4.77;;;;;;;-0.54;91.11;98640.47;5112594;28;20492;-81
2021/01/12 08:30:18;;;;;;;9.83;4.63;;;;;;;-0.45;90.94;98644.19;5112962;28;20459;-81
2021/01/12 08:32:52;;;;;;;10.30;5.20;;;;;;;-0.51;90.66;98624.19;5112557;28;20092;-82
2021/01/12 08:35:21;;;;;;;11.13;4.20;;;;;;;-0.40;90.66;98633.97;5111644;28;20472;-82
2021/01/12 08:37:48;;;;;;;8.63;4.70;;;;;;;-0.41;90.26;98629.59;5112337;28;20051;-82
2021/01/12 08:40:16;;;;;;;10.77;5.07;;;;;;;-0.33;90.54;98634.31;5111774;28;20039;-82
2021/01/12 08:42:43;;;;;;;7.13;4.07;;;;;;;-0.45;90.72;98609.47;5098831;28;20430;-83
2021/01/12 08:45:13;;;;;;;7.27;4.07;;;;;;;-0.46;90.35;98607.78;5111115;28;20039;-83
2021/01/12 08:47:39;;;;;;;;;;;;;;;-0.24;90.07;98633.53;5113107;28;20059;-84
2021/01/12 08:56:06;;;;;;;6.90;3.33;;;;;;;-0.23;90.35;98617.38;5345442;22;20512;-86
2021/01/12 08:58:33;;;;;;;6.57;2.88;;;;;;;-0.35;90.01;98591.69;5072564;28;20056;-88
2021/01/12 09:01:03;;;;;;;5.60;2.90;;;;;;;-0.21;89.86;98601.19;5078604;28;20058;-88
2021/01/12 09:03:32;;;;;;;6.13;3.10;;;;;;;-0.24;90.15;98586.31;5071352;28;20052;-90
2021/01/12 09:05:58;;;;;;;9.40;2.70;;;;;;;-0.14;89.99;98604.22;5071314;28;20051;-91
2021/01/12 09:08:27;;;;;;;4.07;2.80;;;;;;;-0.16;89.41;98593.66;5058981;28;20059;-93
2021/01/12 09:10:55;;;;;;;4.57;2.85;;;;;;;-0.28;90.20;98579.53;5054912;28;20079;-90
2021/01/12 09:13:26;;;;;;;3.93;2.30;;;;;;;-0.18;90.87;98598.31;5072282;28;20059;-91
2021/01/12 09:15:53;;;;;;;3.93;3.00;;;;;;;-0.23;90.00;98582.63;5091582;28;20051;-90
2021/01/12 09:18:21;;;;;;;7.77;2.70;;;;;;;-0.12;90.92;98608.47;5080173;28;20045;-88
2021/01/12 09:20:55;;;;;;;4.47;2.57;;;;;;;-0.28;90.75;98576.84;5072528;28;20063;-87
2021/01/12 09:23:27;;;;;;;3.93;2.43;;;;;;;-0.35;91.26;98586.34;5071468;28;20067;-88
2021/01/12 09:25:54;;;;;;;6.80;2.70;;;;;;;-0.38;91.98;98575.94;5089973;28;20048;-90
2021/01/12 09:28:29;;;;;;;3.43;2.40;;;;;;;-0.45;91.88;98575.63;5086100;28;20055;-89
2021/01/12 09:31:05;;;;;;;4.93;2.47;;;;;;;-0.38;91.71;98587.47;5053117;28;20052;-88
2021/01/12 09:33:35;;;;;;;4.60;3.00;;;;;;;-0.46;91.43;98573.06;5060344;28;20080;-94
2021/01/12 09:36:05;;;;;;;3.70;1.58;;;;;;;-0.44;91.65;98571.09;5073409;28;20060;-95
2021/01/12 09:38:38;;;;;;;3.27;2.07;;;;;;;-0.35;91.91;98589.03;5073830;28;20106;-95
2021/01/12 09:41:11;;;;;;;6.30;2.20;;;;;;;-0.31;91.54;98581.63;5072615;28;20044;-93
2021/01/12 09:43:39;;;;;;;3.00;2.20;;;;;;;-0.39;91.81;98574.25;5072533;28;20056;-91
2021/01/12 09:52:30;;;;;;;2.20;1.70;;;;;;;-0.43;92.10;98573.66;5062603;28;20202;-94
2021/01/12 09:55:03;;;;;;;2.17;1.60;;;;;;;-0.41;92.39;98574.34;5071923;28;20302;-91
2021/01/12 09:57:30;;;;;;;1.83;1.63;;;;;;;-0.24;91.67;98583.63;5072006;28;20493;-92
2021/01/12 09:59:56;;;;;;;2.67;1.57;;;;;;;-0.30;92.05;98580.63;5072112;28;20144;-92
2021/01/12 10:02:23;;;;;;;1.73;1.43;;;;;;;-0.34;91.80;98569.34;5072129;28;20477;-93
2021/01/12 10:04:56;;;;;;;2.33;1.83;;;;;;;-0.33;92.51;98562.19;5073713;28;20381;-93
2021/01/12 10:07:25;;;;;;;3.70;2.10;;;;;;;-0.36;92.36;98564.16;5073784;28;20135;-94
2021/01/12 10:13:13;;;;;;;2.27;1.60;;;;;;;-0.20;92.23;98574.38;5073809;28;20067;-93
2021/01/12 10:15:40;;;;;;;2.20;1.70;;;;;;;-0.31;91.96;98553.06;5073574;28;20049;-93
2021/01/12 10:18:07;;;;;;;2.17;1.40;;;;;;;-0.35;92.00;98540.94;5073773;28;20517;-92
2021/01/12 10:20:35;;;;;;;2.23;1.50;;;;;;;-0.33;92.26;98541.69;5074112;28;20507;-92
2021/01/12 10:23:02;;;;;;;2.47;1.43;;;;;;;-0.33;92.21;98547.03;5073941;28;20207;-94
2021/01/12 10:25:32;;;;;;;5.93;1.87;;;;;;;-0.30;91.81;98543.22;5073197;28;20099;-93
2021/01/12 10:28:00;;;;;;;1.30;1.20;;;;;;;-0.26;91.65;98545.50;5074006;28;20059;-94
2021/01/12 10:30:27;;;;;;;5.60;1.40;;;;;;;-0.12;91.57;98551.47;5074213;28;20106;-94
2021/01/12 10:33:05;;;;;;;2.77;1.53;;;;;;;-0.10;91.86;98541.53;5075367;28;20135;-93
2021/01/12 10:35:42;;;;;;;2.20;1.23;;;;;;;-0.18;91.82;98539.53;5077303;28;20059;-96
2021/01/12 10:38:08;;;;;;;3.00;1.60;;;;;;;-0.24;91.95;98532.00;5077714;28;20052;-95
2021/01/12 10:40:38;;;;;;;1.50;1.10;;;;;;;-0.20;92.67;98545.00;5077354;28;20136;-93
2021/01/12 10:43:06;;;;;;;1.52;1.40;;;;;;;-0.23;92.06;98526.53;5076602;28;20063;-93
2021/01/12 10:45:33;;;;;;;1.63;1.30;;;;;;;-0.12;91.87;98525.63;5072869;28;20045;-91
2021/01/12 10:48:01;;;;;;;1.67;1.33;;;;;;;-0.04;92.19;98524.97;5055611;28;20087;-90
2021/01/12 10:50:28;;;;;;;1.67;1.27;;;;;;;-0.09;91.83;98509.34;5066568;28;20078;-91
2021/01/12 10:52:56;;;;;;;1.40;1.30;;;;;;;-0.01;91.94;98520.19;5075180;28;20048;-90
2021/01/12 10:55:22;;;;;;;1.83;1.20;;;;;;;-0.09;92.26;98512.00;5074427;28;20056;-91
2021/01/12 10:57:49;;;;;;;2.23;1.40;;;;;;;-0.02;91.89;98506.97;5075054;28;20045;-92
2021/01/12 11:00:24;;;;;;;2.50;1.20;;;;;;;-0.02;92.47;98513.13;5074671;28;20411;-92
2021/01/12 11:02:52;;;;;;;3.57;1.30;;;;;;;-0.01;92.03;98506.81;5074813;28;20056;-91
2021/01/12 11:05:19;;;;;;;4.13;1.70;;;;;;;-0.05;91.96;98492.03;5074346;28;20052;-90
2021/01/12 11:07:48;;;;;;;2.37;1.33;;;;;;;0.09;91.79;98511.34;5074346;28;20062;-90
2021/01/12 11:10:15;;;;;;;3.40;1.07;;;;;;;0.08;91.91;98493.66;5075088;28;20079;-90
2021/01/12 11:12:47;;;;;;;2.00;1.60;;;;;;;0.04;92.12;98474.34;5074558;28;20057;-89
2021/01/12 11:15:15;;;;;;;0.93;0.90;;;;;;;0.07;91.68;98475.91;5075804;28;20086;-93
2021/01/12 11:17:45;;;;;;;1.70;0.90;;;;;;;0.04;91.62;98474.34;5075972;28;20056;-93
2021/01/12 11:20:13;;;;;;;1.10;1.10;;;;;;;0.14;91.96;98488.59;5075491;28;20147;-91
2021/01/12 11:22:40;;;;;;;1.53;1.17;;;;;;;0.08;91.76;98465.09;5074577;28;20055;-92
2021/01/12 11:25:09;;;;;;;1.73;1.17;;;;;;;0.26;91.70;98470.63;5073752;28;20076;-91
2021/01/12 11:27:38;;;;;;;0.87;0.80;;;;;;;0.29;91.56;98461.50;5074423;28;20075;-91
2021/01/12 11:30:06;;;;;;;0.90;0.90;;;;;;;0.30;91.79;98464.03;5073279;28;20074;-91
2021/01/12 11:32:34;;;;;;;4.10;1.10;;;;;;;0.28;91.18;98443.75;5075358;28;20052;-91
2021/01/12 11:35:02;;;;;;;1.23;1.10;;;;;;;0.40;91.39;98457.84;5093978;28;20448;-89
2021/01/12 11:37:29;;;;;;;0.70;0.70;;;;;;;0.39;91.29;98451.66;5073175;28;20083;-89
2021/01/12 11:39:56;;;;;;;2.87;1.10;;;;;;;0.35;91.38;98448.41;5073815;28;20520;-89
2021/01/12 11:42:22;;;;;;;1.57;1.40;;;;;;;0.22;91.46;98412.22;5074096;28;20044;-89
2021/01/12 11:44:50;;;;;;;1.27;1.17;;;;;;;0.29;91.66;98429.41;5072523;28;20055;-89
2021/01/12 11:47:17;;;;;;;1.03;0.93;;;;;;;0.31;91.31;98425.59;5073370;28;20040;-89
2021/01/12 11:49:44;;;;;;;1.13;1.00;;;;;;;0.40;91.12;98421.25;5073755;28;20106;-89
2021/01/12 11:52:10;;;;;;;1.10;1.00;;;;;;;0.44;91.43;98427.19;5073431;28;20048;-89